hwlogo.jpg (8581 bytes)
Home Your Weather Products Services Weather On Your Site Contact
HW Version Logo
Weather Info
Your Weather (Options)
Canadian Weather
International Weather
Enter your " Place, State", US Zip Code or ICAO:  
Forecast Information Radar Information
Dawson, Yukon Territory, Canada  Lat: 64.03N, Lon: 139.08W
ICAO Used: CYDA
Current Conditions
Updated: 4:00 PM PST SUN FEB 18 2018
Sun & Moon Information
Light Snow
Light Snow
Temp: -15°C
Humidity: 71%
Wind Speed: NE 8 MPH
Barometer: 1030 mb
Dewpoint: -19°C
Heat Index: -15°C
Wind Chill: -22°C
Civil Twilight: 8:12 AM PST Moon Phase:
Waxing Crescent Moon
Sunrise: 9:03 AM PST
Sunset: 5:57 PM PST
Civil Twilight: 6:48 PM PST
Forecast for Dawson, YK:
(Forecast based on TAF for )
0400 PM PST SUN FEB 18 2018
  
AFTERNOON EVENING OVERNIGHT
Mostly
Cloudy
Mostly
Cloudy
Mostly
Cloudy
ZoneCast:
Dated: 0400 PM PST SUN FEB 18 2018
Afternoon...Turning mostly cloudy with winds from the eastnortheast at 7 mph.

Evening...Mostly cloudy with winds from the eastnortheast at 7 mph.

Overnight...Mostly cloudy with winds from the eastnortheast at 7 mph.

Original Encoded TAF:
Dated: 0400 PM PST SUN FEB 18 2018
2018/02/18 21:12
TAF 
      AMD TAF 
      AMD CYDA 182110Z 1821/1824 06006KT P6SM OVC025 
      TEMPO 1821/1823 5SM -SN OVC020 
     FM182300 06006KT P6SM SCT025 BKN260 
      TEMPO 1823/1824 6SM -SN BKN020 BKN260 
      RMK NXT FCST WILL BE ISSUED AT 191645Z